createdAt,value
2017-09-29T00:00:10.521Z,935.09
2017-09-29T00:00:38.616Z,935.11
2017-09-29T00:01:06.607Z,935.13
2017-09-29T00:01:34.713Z,935.13
2017-09-29T00:02:02.805Z,935.17
2017-09-29T00:02:30.780Z,935.16
2017-09-29T00:02:58.788Z,935.18
2017-09-29T00:03:26.660Z,935.24
2017-09-29T00:03:54.738Z,935.24
2017-09-29T00:04:22.638Z,935.23
2017-09-29T00:04:50.733Z,935.24
2017-09-29T00:05:18.815Z,935.25
2017-09-29T00:05:46.901Z,935.33
2017-09-29T00:06:14.889Z,935.28
2017-09-29T00:06:42.896Z,935.31
2017-09-29T00:07:11.002Z,935.33
2017-09-29T00:07:39.101Z,935.35
2017-09-29T00:08:07.085Z,935.38
2017-09-29T00:08:35.085Z,935.42
2017-09-29T00:09:03.151Z,935.44
2017-09-29T00:09:31.073Z,935.44
2017-09-29T00:09:59.054Z,935.45
2017-09-29T00:10:27.246Z,935.47
2017-09-29T00:10:55.133Z,935.51
2017-09-29T00:11:23.124Z,935.47
2017-09-29T00:11:51.221Z,935.5
2017-09-29T00:12:19.323Z,935.48
2017-09-29T00:12:47.322Z,935.53
2017-09-29T00:13:15.334Z,935.56
2017-09-29T00:13:43.425Z,935.56
2017-09-29T00:14:11.416Z,935.57
2017-09-29T00:14:39.317Z,935.56
2017-09-29T00:15:07.308Z,935.54
2017-09-29T00:15:35.273Z,935.57
2017-09-29T00:16:03.308Z,935.58
2017-09-29T00:16:31.394Z,935.56
2017-09-29T00:16:59.380Z,935.55
2017-09-29T00:17:27.499Z,935.51
2017-09-29T00:17:55.608Z,935.53
2017-09-29T00:18:23.777Z,935.54
2017-09-29T00:18:51.852Z,935.51
2017-09-29T00:19:19.862Z,935.51
2017-09-29T00:19:47.969Z,935.5
2017-09-29T00:20:16.029Z,935.55
2017-09-29T00:20:43.990Z,935.52
2017-09-29T00:21:12.091Z,935.51
2017-09-29T00:21:40.075Z,935.55
2017-09-29T00:22:08.160Z,935.55
2017-09-29T00:22:36.164Z,935.54
2017-09-29T00:23:04.058Z,935.56
2017-09-29T00:23:32.070Z,935.56
2017-09-29T00:24:00.198Z,935.52
2017-09-29T00:24:28.197Z,935.55
2017-09-29T00:24:56.309Z,935.54
2017-09-29T00:25:24.402Z,935.52
2017-09-29T00:25:52.394Z,935.5
2017-09-29T00:26:20.387Z,935.5
2017-09-29T00:26:48.480Z,935.54
2017-09-29T00:27:16.570Z,935.48
2017-09-29T00:27:44.558Z,935.49
2017-09-29T00:28:12.573Z,935.47
2017-09-29T00:28:40.562Z,935.49
2017-09-29T00:29:08.680Z,935.46
2017-09-29T00:29:36.766Z,935.45
2017-09-29T00:30:04.856Z,935.5
2017-09-29T00:30:32.975Z,935.49
2017-09-29T00:31:01.033Z,935.49
2017-09-29T00:31:29.150Z,935.46
2017-09-29T00:31:57.127Z,935.43
2017-09-29T00:32:25.217Z,935.43
2017-09-29T00:32:53.104Z,935.49
2017-09-29T00:33:21.098Z,935.49
2017-09-29T00:33:48.915Z,935.51
2017-09-29T00:34:17.000Z,935.53
2017-09-29T00:34:45.089Z,935.52
2017-09-29T00:35:13.084Z,935.53
2017-09-29T00:35:41.308Z,935.51
2017-09-29T00:36:09.388Z,935.52
2017-09-29T00:36:37.458Z,935.53
2017-09-29T00:37:05.343Z,935.55
2017-09-29T00:37:33.437Z,935.52
2017-09-29T00:38:01.540Z,935.53
2017-09-29T00:38:29.442Z,935.51
2017-09-29T00:38:57.430Z,935.5
2017-09-29T00:39:25.530Z,935.47
2017-09-29T00:39:53.523Z,935.44
2017-09-29T00:40:21.634Z,935.42
2017-09-29T00:40:49.722Z,935.43
2017-09-29T00:41:17.732Z,935.43
2017-09-29T00:41:45.828Z,935.38
2017-09-29T00:42:13.933Z,935.39
2017-09-29T00:42:42.006Z,935.39
2017-09-29T00:43:10.070Z,935.41
2017-09-29T00:43:38.159Z,935.39
2017-09-29T00:44:06.167Z,935.36
2017-09-29T00:44:34.168Z,935.44
2017-09-29T00:45:02.259Z,935.41
2017-09-29T00:45:30.322Z,935.43
2017-09-29T00:45:58.301Z,935.4
2017-09-29T00:46:26.214Z,935.42
2017-09-29T00:46:54.296Z,935.44
2017-09-29T00:47:22.398Z,935.45
2017-09-29T00:47:50.277Z,935.47
2017-09-29T00:48:18.259Z,935.45
2017-09-29T00:48:46.350Z,935.5
2017-09-29T00:49:14.219Z,935.51
2017-09-29T00:49:42.220Z,935.5
2017-09-29T00:50:10.313Z,935.53
2017-09-29T00:50:38.548Z,935.56
2017-09-29T00:51:06.536Z,935.54
2017-09-29T00:51:34.680Z,935.59
2017-09-29T00:52:02.652Z,935.59
2017-09-29T00:52:30.625Z,935.57
2017-09-29T00:52:58.717Z,935.58
2017-09-29T00:53:26.710Z,935.62
2017-09-29T00:53:54.710Z,935.74
2017-09-29T00:54:22.817Z,935.59
2017-09-29T00:54:50.607Z,935.64
2017-09-29T00:55:18.677Z,935.68
2017-09-29T00:55:46.890Z,935.67
2017-09-29T00:56:14.904Z,935.66
2017-09-29T00:56:42.863Z,935.69
2017-09-29T00:57:10.861Z,935.67
2017-09-29T00:57:38.856Z,935.66
2017-09-29T00:58:06.936Z,935.66
2017-09-29T00:58:35.020Z,935.65
2017-09-29T00:59:03.008Z,935.66
2017-09-29T00:59:30.988Z,935.63
2017-09-29T00:59:58.925Z,935.66
2017-09-29T01:00:27.025Z,935.62
2017-09-29T01:00:55.031Z,935.65
2017-09-29T01:01:23.018Z,935.58
2017-09-29T01:01:51.153Z,935.61
2017-09-29T01:02:19.049Z,935.61
2017-09-29T01:02:47.153Z,935.58
2017-09-29T01:03:15.063Z,935.6
2017-09-29T01:03:42.928Z,935.61
2017-09-29T01:04:10.937Z,935.61
2017-09-29T01:04:39.048Z,935.56
2017-09-29T01:05:07.038Z,935.56
2017-09-29T01:05:34.916Z,935.55
2017-09-29T01:06:03.015Z,935.58
2017-09-29T01:06:30.993Z,935.58
2017-09-29T01:06:59.109Z,935.57
2017-09-29T01:07:27.187Z,935.59
2017-09-29T01:07:55.289Z,935.6
2017-09-29T01:08:23.259Z,935.58
2017-09-29T01:08:51.363Z,935.57
2017-09-29T01:09:19.340Z,935.57
2017-09-29T01:09:47.347Z,935.6
2017-09-29T01:10:15.430Z,935.61
2017-09-29T01:10:43.510Z,935.59
2017-09-29T01:11:11.509Z,935.6
2017-09-29T01:11:39.592Z,935.62
2017-09-29T01:12:07.694Z,935.63
2017-09-29T01:12:35.695Z,935.59
2017-09-29T01:13:03.716Z,935.63
2017-09-29T01:13:31.706Z,935.58
2017-09-29T01:13:59.783Z,935.6
2017-09-29T01:14:27.802Z,935.6
2017-09-29T01:14:55.902Z,935.6
2017-09-29T01:15:24.029Z,935.57
2017-09-29T01:15:52.232Z,935.57
2017-09-29T01:16:20.349Z,935.59
2017-09-29T01:16:48.326Z,935.57
2017-09-29T01:17:16.308Z,935.59
2017-09-29T01:17:44.213Z,935.59
2017-09-29T01:18:12.108Z,935.58
2017-09-29T01:18:40.104Z,935.64
2017-09-29T01:19:08.098Z,935.62
2017-09-29T01:19:36.185Z,935.56
2017-09-29T01:20:04.174Z,935.62
2017-09-29T01:20:32.148Z,935.62
2017-09-29T01:21:00.333Z,935.6
2017-09-29T01:21:28.333Z,935.61
2017-09-29T01:21:56.306Z,935.62
2017-09-29T01:22:24.307Z,935.58
2017-09-29T01:22:52.220Z,935.56
2017-09-29T01:23:20.198Z,935.63
2017-09-29T01:23:48.129Z,935.59
2017-09-29T01:24:16.128Z,935.59
2017-09-29T01:24:44.031Z,935.61
2017-09-29T01:25:12.036Z,935.54
2017-09-29T01:25:40.140Z,935.55
2017-09-29T01:26:08.239Z,935.54
2017-09-29T01:26:36.342Z,935.53
2017-09-29T01:27:04.472Z,935.54
2017-09-29T01:27:32.440Z,935.56
2017-09-29T01:28:00.439Z,935.54
2017-09-29T01:28:28.363Z,935.55
2017-09-29T01:28:56.448Z,935.58
2017-09-29T01:29:24.540Z,935.59
2017-09-29T01:29:52.633Z,935.61
2017-09-29T01:30:20.511Z,935.59
2017-09-29T01:30:48.429Z,935.59
2017-09-29T01:31:16.611Z,935.62
2017-09-29T01:31:44.594Z,935.63
2017-09-29T01:32:12.572Z,935.62
2017-09-29T01:32:40.664Z,935.61
2017-09-29T01:33:08.680Z,935.63
2017-09-29T01:33:36.765Z,935.7
2017-09-29T01:34:04.887Z,935.64
2017-09-29T01:34:32.989Z,935.64
2017-09-29T01:35:00.985Z,935.63
2017-09-29T01:35:29.069Z,935.63
2017-09-29T01:35:57.066Z,935.61
2017-09-29T01:36:25.162Z,935.62
2017-09-29T01:36:53.261Z,935.63
2017-09-29T01:37:21.363Z,935.58
2017-09-29T01:37:49.462Z,935.6
2017-09-29T01:38:17.568Z,935.61
2017-09-29T01:38:45.679Z,935.63
2017-09-29T01:39:13.765Z,935.59
2017-09-29T01:39:41.769Z,935.58
2017-09-29T01:40:09.857Z,935.58
2017-09-29T01:40:37.746Z,935.57
2017-09-29T01:41:05.823Z,935.59
2017-09-29T01:41:33.931Z,935.54
2017-09-29T01:42:01.931Z,935.51
2017-09-29T01:42:30.029Z,935.54
2017-09-29T01:42:58.025Z,935.54
2017-09-29T01:43:26.115Z,935.52
2017-09-29T01:43:54.172Z,935.52
2017-09-29T01:44:22.293Z,935.54
2017-09-29T01:44:50.301Z,935.48
2017-09-29T01:45:18.285Z,935.53
2017-09-29T01:45:46.258Z,935.6
2017-09-29T01:46:14.452Z,935.55
2017-09-29T01:46:42.337Z,935.57
2017-09-29T01:47:10.322Z,935.55
2017-09-29T01:47:38.303Z,935.56
2017-09-29T01:48:06.383Z,935.53
2017-09-29T01:48:34.489Z,935.55
2017-09-29T01:49:02.497Z,935.54
2017-09-29T01:49:30.541Z,935.6
2017-09-29T01:49:58.643Z,935.56
2017-09-29T01:50:26.628Z,935.55
2017-09-29T01:50:54.742Z,935.53
2017-09-29T01:51:22.823Z,935.57
2017-09-29T01:51:50.803Z,935.55
2017-09-29T01:52:18.901Z,935.56
2017-09-29T01:52:46.973Z,935.57
2017-09-29T01:53:15.067Z,935.54
2017-09-29T01:53:43.174Z,935.67
2017-09-29T01:54:11.161Z,935.56
2017-09-29T01:54:39.062Z,935.56
2017-09-29T01:55:06.952Z,935.58
2017-09-29T01:55:34.967Z,935.52
2017-09-29T01:56:03.058Z,935.58
2017-09-29T01:56:31.071Z,935.52
2017-09-29T01:56:59.209Z,935.62
2017-09-29T01:57:27.249Z,935.56
2017-09-29T01:57:55.358Z,935.59
2017-09-29T01:58:23.433Z,935.59
2017-09-29T01:58:51.533Z,935.62
2017-09-29T01:59:19.526Z,935.61
2017-09-29T01:59:47.638Z,935.61
2017-09-29T02:00:15.629Z,935.6
2017-09-29T02:00:43.779Z,935.55
2017-09-29T02:01:11.900Z,935.59
2017-09-29T02:01:40.007Z,935.59
2017-09-29T02:02:08.001Z,935.58
2017-09-29T02:02:35.963Z,935.55
2017-09-29T02:03:04.037Z,935.57
2017-09-29T02:03:32.156Z,935.52
2017-09-29T02:04:00.061Z,935.51
2017-09-29T02:04:28.142Z,935.51
2017-09-29T02:04:56.142Z,935.5
2017-09-29T02:05:24.224Z,935.47
2017-09-29T02:05:52.033Z,935.52
2017-09-29T02:06:20.105Z,935.52
2017-09-29T02:06:47.998Z,935.45
2017-09-29T02:07:15.988Z,935.53
2017-09-29T02:07:43.968Z,935.49
2017-09-29T02:08:12.053Z,935.48
2017-09-29T02:08:40.154Z,935.53
2017-09-29T02:09:08.261Z,935.52
2017-09-29T02:09:36.242Z,935.47
2017-09-29T02:10:04.236Z,935.49
2017-09-29T02:10:32.229Z,935.49
2017-09-29T02:11:00.243Z,935.51
2017-09-29T02:11:28.443Z,935.45
2017-09-29T02:11:56.530Z,935.53
2017-09-29T02:12:24.559Z,935.46
2017-09-29T02:12:52.648Z,935.56
2017-09-29T02:13:20.694Z,935.44
2017-09-29T02:13:48.784Z,935.44
2017-09-29T02:14:16.793Z,935.44
2017-09-29T02:14:44.774Z,935.37
2017-09-29T02:15:12.650Z,935.38
2017-09-29T02:15:40.747Z,935.37
2017-09-29T02:16:08.737Z,935.37
2017-09-29T02:16:36.910Z,935.34
2017-09-29T02:17:05.038Z,935.35
2017-09-29T02:17:33.030Z,935.34
2017-09-29T02:18:00.941Z,935.33
2017-09-29T02:18:29.001Z,935.35
2017-09-29T02:18:57.096Z,935.33
2017-09-29T02:19:25.219Z,935.36
2017-09-29T02:19:53.240Z,935.33
2017-09-29T02:20:21.125Z,935.33
2017-09-29T02:20:49.119Z,935.34
2017-09-29T02:21:17.193Z,935.32
2017-09-29T02:21:45.372Z,935.31
2017-09-29T02:22:13.154Z,935.32
2017-09-29T02:22:41.276Z,935.32
2017-09-29T02:23:09.401Z,935.34
2017-09-29T02:23:37.501Z,935.36
2017-09-29T02:24:05.586Z,935.35
2017-09-29T02:24:33.562Z,935.34
2017-09-29T02:25:01.637Z,935.32
2017-09-29T02:25:29.719Z,935.29
2017-09-29T02:25:57.800Z,935.31
2017-09-29T02:26:25.959Z,935.31
2017-09-29T02:26:53.828Z,935.34
2017-09-29T02:27:21.937Z,935.37
2017-09-29T02:27:50.021Z,935.31
2017-09-29T02:28:17.930Z,935.35
2017-09-29T02:28:45.932Z,935.34
2017-09-29T02:29:13.919Z,935.29
2017-09-29T02:29:41.991Z,935.28
2017-09-29T02:30:09.968Z,935.28
2017-09-29T02:30:37.854Z,935.28
2017-09-29T02:31:05.947Z,935.27
2017-09-29T02:31:33.964Z,935.28
2017-09-29T02:32:02.076Z,935.31
2017-09-29T02:32:30.156Z,935.26
2017-09-29T02:32:58.242Z,935.32
2017-09-29T02:33:26.346Z,935.27
2017-09-29T02:33:54.457Z,935.33
2017-09-29T02:34:22.583Z,935.3
2017-09-29T02:34:50.665Z,935.33
2017-09-29T02:35:18.728Z,935.31
2017-09-29T02:35:46.738Z,935.3
2017-09-29T02:36:14.808Z,935.3
2017-09-29T02:36:42.786Z,935.33
2017-09-29T02:37:10.872Z,935.31
2017-09-29T02:37:38.964Z,935.36
2017-09-29T02:38:06.948Z,935.33
2017-09-29T02:38:34.961Z,935.37
2017-09-29T02:39:02.940Z,935.35
2017-09-29T02:39:31.051Z,935.36
2017-09-29T02:39:59.051Z,935.33
2017-09-29T02:40:27.062Z,935.32
2017-09-29T02:40:55.045Z,935.32
2017-09-29T02:41:23.133Z,935.31
2017-09-29T02:41:51.207Z,935.32
2017-09-29T02:42:19.287Z,935.31
2017-09-29T02:42:47.069Z,935.31
2017-09-29T02:43:15.159Z,935.31
2017-09-29T02:43:43.071Z,935.3
2017-09-29T02:44:11.047Z,935.29
2017-09-29T02:44:39.159Z,935.28
2017-09-29T02:45:07.151Z,935.27
2017-09-29T02:45:35.128Z,935.27
2017-09-29T02:46:03.020Z,935.25
2017-09-29T02:46:30.991Z,935.24
2017-09-29T02:46:59.090Z,935.27
2017-09-29T02:47:27.094Z,935.2
2017-09-29T02:47:55.097Z,935.19
2017-09-29T02:48:22.985Z,935.25
2017-09-29T02:48:50.945Z,935.25
2017-09-29T02:49:18.923Z,935.21
2017-09-29T02:49:46.832Z,935.21
2017-09-29T02:50:14.742Z,935.23
2017-09-29T02:50:42.833Z,935.21
2017-09-29T02:51:10.828Z,935.2
2017-09-29T02:51:38.995Z,935.2
2017-09-29T02:52:06.888Z,935.2
2017-09-29T02:52:34.901Z,935.15
2017-09-29T02:53:03.023Z,935.17
2017-09-29T02:53:31.126Z,935.15
2017-09-29T02:53:59.219Z,935.2
2017-09-29T02:54:27.344Z,935.17
2017-09-29T02:54:55.436Z,935.22
2017-09-29T02:55:23.317Z,935.15
2017-09-29T02:55:51.413Z,935.2
2017-09-29T02:56:19.526Z,935.16
2017-09-29T02:56:47.616Z,935.16
2017-09-29T02:57:15.495Z,935.14
2017-09-29T02:57:43.607Z,935.16
2017-09-29T02:58:11.606Z,935.16
2017-09-29T02:58:39.681Z,935.11
2017-09-29T02:59:07.768Z,935.13
2017-09-29T02:59:35.844Z,935.12
2017-09-29T03:00:03.921Z,935.12
2017-09-29T03:00:31.910Z,935.09
2017-09-29T03:00:59.914Z,935.08
2017-09-29T03:01:27.870Z,935.1
2017-09-29T03:01:55.852Z,935.1
2017-09-29T03:02:23.930Z,935.08
2017-09-29T03:02:51.915Z,935.09
2017-09-29T03:03:19.985Z,935.09
2017-09-29T03:03:47.964Z,935.08
2017-09-29T03:04:15.963Z,935.05
2017-09-29T03:04:43.982Z,935.06
2017-09-29T03:05:12.087Z,935.08
2017-09-29T03:05:40.062Z,935.11
2017-09-29T03:06:08.025Z,935.06
2017-09-29T03:06:36.015Z,935.1
2017-09-29T03:07:04.182Z,935.09
2017-09-29T03:07:32.266Z,935.04
2017-09-29T03:08:00.057Z,935.09
2017-09-29T03:08:28.126Z,935.07
2017-09-29T03:08:55.935Z,935.09
2017-09-29T03:09:23.942Z,935.1
2017-09-29T03:09:52.039Z,935.07
2017-09-29T03:10:20.142Z,935.09
2017-09-29T03:10:48.238Z,935.08
2017-09-29T03:11:16.226Z,935.05
2017-09-29T03:11:44.218Z,935.03
2017-09-29T03:12:12.406Z,935.04
2017-09-29T03:12:40.496Z,935.02
2017-09-29T03:13:08.392Z,935.07
2017-09-29T03:13:36.513Z,935.02
2017-09-29T03:14:04.397Z,935.03
2017-09-29T03:14:32.397Z,935.02
2017-09-29T03:15:00.392Z,934.98
2017-09-29T03:15:28.488Z,935.03
2017-09-29T03:15:56.488Z,935.02
2017-09-29T03:16:24.562Z,935.02
2017-09-29T03:16:52.543Z,935.08
2017-09-29T03:17:20.530Z,935.02
2017-09-29T03:17:48.607Z,935.04
2017-09-29T03:18:16.583Z,935
2017-09-29T03:18:44.599Z,935.01
2017-09-29T03:19:12.652Z,935.04
2017-09-29T03:19:40.641Z,935.01
2017-09-29T03:20:08.747Z,935.03
2017-09-29T03:20:36.861Z,935.03
2017-09-29T03:21:04.845Z,935.02
2017-09-29T03:21:32.955Z,935.01
2017-09-29T03:22:00.948Z,935.02
2017-09-29T03:22:28.839Z,935
2017-09-29T03:22:56.814Z,935
2017-09-29T03:23:24.720Z,934.97
2017-09-29T03:23:52.711Z,934.97
2017-09-29T03:24:20.796Z,935
2017-09-29T03:24:48.897Z,935
2017-09-29T03:25:16.912Z,934.96
2017-09-29T03:25:44.899Z,934.97
2017-09-29T03:26:12.904Z,934.95
2017-09-29T03:26:40.868Z,934.95
2017-09-29T03:27:08.840Z,934.93
2017-09-29T03:27:36.809Z,934.92
2017-09-29T03:28:04.908Z,934.87
2017-09-29T03:28:33.027Z,934.89
2017-09-29T03:29:01.134Z,934.89
2017-09-29T03:29:29.256Z,934.89
2017-09-29T03:29:57.352Z,934.94
2017-09-29T03:30:25.341Z,934.89
2017-09-29T03:30:53.369Z,934.92
2017-09-29T03:31:21.475Z,934.86
2017-09-29T03:31:49.574Z,934.92
2017-09-29T03:32:17.746Z,934.89
2017-09-29T03:32:45.853Z,934.91
2017-09-29T03:33:13.854Z,934.9
2017-09-29T03:33:41.965Z,934.9
2017-09-29T03:34:10.081Z,934.95
2017-09-29T03:34:38.176Z,934.89
2017-09-29T03:35:06.283Z,934.87
2017-09-29T03:35:34.277Z,934.87
2017-09-29T03:36:02.390Z,934.8
2017-09-29T03:36:30.465Z,934.8
2017-09-29T03:36:58.566Z,934.79
2017-09-29T03:37:26.658Z,934.8
2017-09-29T03:37:54.621Z,934.77
2017-09-29T03:38:22.734Z,934.79
2017-09-29T03:38:50.630Z,934.76
2017-09-29T03:39:18.507Z,934.72
2017-09-29T03:39:46.599Z,934.74
2017-09-29T03:40:14.676Z,934.72
2017-09-29T03:40:42.684Z,934.69
2017-09-29T03:41:10.790Z,934.68
2017-09-29T03:41:38.894Z,934.71
2017-09-29T03:42:06.972Z,934.69
2017-09-29T03:42:35.096Z,934.65
2017-09-29T03:43:03.084Z,934.68
2017-09-29T03:43:31.184Z,934.66
2017-09-29T03:43:59.270Z,934.65
2017-09-29T03:44:27.346Z,934.71
2017-09-29T03:44:55.450Z,934.62
2017-09-29T03:45:23.447Z,934.64
2017-09-29T03:45:51.451Z,934.62
2017-09-29T03:46:19.551Z,934.63
2017-09-29T03:46:47.624Z,934.67
2017-09-29T03:47:15.605Z,934.67
2017-09-29T03:47:43.723Z,934.65
2017-09-29T03:48:11.823Z,934.63
2017-09-29T03:48:39.810Z,934.67
2017-09-29T03:49:07.845Z,934.65
2017-09-29T03:49:35.737Z,934.67
2017-09-29T03:50:03.644Z,934.66
2017-09-29T03:50:31.749Z,934.65
2017-09-29T03:50:59.825Z,934.64
2017-09-29T03:51:27.900Z,934.65
2017-09-29T03:51:55.905Z,934.65
2017-09-29T03:52:24.110Z,934.64
2017-09-29T03:52:52.193Z,934.65
2017-09-29T03:53:20.167Z,934.64
2017-09-29T03:53:48.279Z,934.65
2017-09-29T03:54:16.362Z,934.63
2017-09-29T03:54:44.239Z,934.62
2017-09-29T03:55:12.141Z,934.67
2017-09-29T03:55:40.221Z,934.66
2017-09-29T03:56:08.312Z,934.64
2017-09-29T03:56:36.300Z,934.69
2017-09-29T03:57:04.407Z,934.67
2017-09-29T03:57:32.502Z,934.65
2017-09-29T03:58:00.496Z,934.63
2017-09-29T03:58:28.381Z,934.63
2017-09-29T03:58:56.261Z,934.63
2017-09-29T03:59:24.138Z,934.65
2017-09-29T03:59:52.138Z,934.57
2017-09-29T04:00:20.032Z,934.56
2017-09-29T04:00:48.128Z,934.55
2017-09-29T04:01:16.151Z,934.56
2017-09-29T04:01:44.249Z,934.57
2017-09-29T04:02:12.332Z,934.53
2017-09-29T04:02:40.415Z,934.56
2017-09-29T04:03:08.522Z,934.56
2017-09-29T04:03:36.517Z,934.56
2017-09-29T04:04:04.498Z,934.56
2017-09-29T04:04:32.390Z,934.56
2017-09-29T04:05:00.468Z,934.57
2017-09-29T04:05:28.573Z,934.56
2017-09-29T04:05:56.671Z,934.57
2017-09-29T04:06:24.776Z,934.59
2017-09-29T04:06:52.876Z,934.58
2017-09-29T04:07:20.994Z,934.6
2017-09-29T04:07:48.988Z,934.63
2017-09-29T04:08:16.885Z,934.59
2017-09-29T04:08:44.894Z,934.6
2017-09-29T04:09:12.952Z,934.63
2017-09-29T04:09:40.955Z,934.62
2017-09-29T04:10:09.048Z,934.63
2017-09-29T04:10:37.159Z,934.61
2017-09-29T04:11:05.250Z,934.62
2017-09-29T04:11:33.115Z,934.66
2017-09-29T04:12:01.104Z,934.56
2017-09-29T04:12:29.281Z,934.6
2017-09-29T04:12:57.377Z,934.6
2017-09-29T04:13:25.385Z,934.59
2017-09-29T04:13:53.373Z,934.6
2017-09-29T04:14:21.377Z,934.54
2017-09-29T04:14:49.472Z,934.55
2017-09-29T04:15:17.493Z,934.57
2017-09-29T04:15:45.590Z,934.55
2017-09-29T04:16:13.678Z,934.55
2017-09-29T04:16:41.798Z,934.55
2017-09-29T04:17:09.791Z,934.53
2017-09-29T04:17:37.879Z,934.51
2017-09-29T04:18:05.888Z,934.5
2017-09-29T04:18:33.993Z,934.54
2017-09-29T04:19:02.087Z,934.47
2017-09-29T04:19:30.225Z,934.47
2017-09-29T04:19:58.002Z,934.51
2017-09-29T04:20:26.006Z,934.47
2017-09-29T04:20:54.101Z,934.44
2017-09-29T04:21:22.103Z,934.38
2017-09-29T04:21:50.203Z,934.42
2017-09-29T04:22:18.218Z,934.41
2017-09-29T04:22:46.422Z,934.42
2017-09-29T04:23:14.229Z,934.43
2017-09-29T04:23:42.295Z,934.42
2017-09-29T04:24:10.380Z,934.44
2017-09-29T04:24:38.465Z,934.41
2017-09-29T04:25:06.467Z,934.4
2017-09-29T04:25:34.578Z,934.38
2017-09-29T04:26:02.655Z,934.41
2017-09-29T04:26:30.545Z,934.37
2017-09-29T04:26:58.649Z,934.41
2017-09-29T04:27:26.637Z,934.36
2017-09-29T04:27:54.726Z,934.37
2017-09-29T04:28:22.706Z,934.39
2017-09-29T04:28:50.783Z,934.39
2017-09-29T04:29:18.893Z,934.37
2017-09-29T04:29:46.990Z,934.37
2017-09-29T04:30:14.990Z,934.38
2017-09-29T04:30:42.997Z,934.36
2017-09-29T04:31:11.092Z,934.37
2017-09-29T04:31:39.174Z,934.39
2017-09-29T04:32:07.263Z,934.34
2017-09-29T04:32:35.440Z,934.35
2017-09-29T04:33:03.437Z,934.34
2017-09-29T04:33:31.531Z,934.32
2017-09-29T04:33:59.614Z,934.35
2017-09-29T04:34:27.605Z,934.33
2017-09-29T04:34:55.738Z,934.33
2017-09-29T04:35:23.748Z,934.28
2017-09-29T04:35:51.851Z,934.33
2017-09-29T04:36:19.918Z,934.36
2017-09-29T04:36:47.933Z,934.32
2017-09-29T04:37:16.018Z,934.32
2017-09-29T04:37:44.248Z,934.27
2017-09-29T04:38:12.344Z,934.26
2017-09-29T04:38:40.428Z,934.29
2017-09-29T04:39:08.439Z,934.23
2017-09-29T04:39:36.527Z,934.23
2017-09-29T04:40:04.495Z,934.21
2017-09-29T04:40:32.610Z,934.22
2017-09-29T04:41:00.402Z,934.23
2017-09-29T04:41:28.398Z,934.25
2017-09-29T04:41:56.282Z,934.21
2017-09-29T04:42:24.278Z,934.16
2017-09-29T04:42:52.476Z,934.15
2017-09-29T04:43:20.484Z,934.16
2017-09-29T04:43:48.578Z,934.19
2017-09-29T04:44:16.580Z,934.15
2017-09-29T04:44:44.667Z,934.21
2017-09-29T04:45:12.641Z,934.19
2017-09-29T04:45:40.513Z,934.16
2017-09-29T04:46:08.501Z,934.16
2017-09-29T04:46:36.595Z,934.19
2017-09-29T04:47:04.738Z,934.15
2017-09-29T04:47:32.511Z,934.13
2017-09-29T04:48:00.704Z,934.15
2017-09-29T04:48:28.815Z,934.12
2017-09-29T04:48:56.803Z,934.13
2017-09-29T04:49:24.690Z,934.14
2017-09-29T04:49:52.585Z,934.09
2017-09-29T04:50:20.564Z,934.09
2017-09-29T04:50:48.683Z,934.11
2017-09-29T04:51:16.689Z,934.13
2017-09-29T04:51:44.689Z,934.09
2017-09-29T04:52:12.774Z,934.11
2017-09-29T04:52:40.780Z,934.1
2017-09-29T04:53:08.972Z,934.09
2017-09-29T04:53:37.066Z,934.08
2017-09-29T04:54:05.146Z,934.09
2017-09-29T04:54:33.251Z,934.07
2017-09-29T04:55:01.278Z,934.07
2017-09-29T04:55:29.279Z,934.08
2017-09-29T04:55:57.371Z,934.06
2017-09-29T04:56:25.305Z,934.06
2017-09-29T04:56:53.448Z,934.1
2017-09-29T04:57:21.560Z,934.04
2017-09-29T04:57:49.653Z,934.05
2017-09-29T04:58:17.630Z,934.07
2017-09-29T04:58:45.522Z,934.08
2017-09-29T04:59:13.501Z,934.01
2017-09-29T04:59:41.498Z,934.08
2017-09-29T05:00:09.499Z,934.05
2017-09-29T05:00:37.498Z,934.03
2017-09-29T05:01:05.379Z,934
2017-09-29T05:01:33.278Z,933.97
2017-09-29T05:02:01.388Z,934
2017-09-29T05:02:29.314Z,934.02
2017-09-29T05:02:57.523Z,934.02
2017-09-29T05:03:25.427Z,934
2017-09-29T05:03:53.451Z,933.98
2017-09-29T05:04:21.536Z,934
2017-09-29T05:04:49.629Z,933.98
2017-09-29T05:05:17.617Z,934.03
2017-09-29T05:05:45.625Z,934
2017-09-29T05:06:13.694Z,933.98
2017-09-29T05:06:41.665Z,933.98
2017-09-29T05:07:09.571Z,934.01
2017-09-29T05:07:37.661Z,933.97
2017-09-29T05:08:05.900Z,933.93
2017-09-29T05:08:33.896Z,933.92
2017-09-29T05:09:01.691Z,933.96
2017-09-29T05:09:29.767Z,933.91
2017-09-29T05:09:57.853Z,933.89
2017-09-29T05:10:25.929Z,933.92
2017-09-29T05:10:54.002Z,933.86
2017-09-29T05:11:21.987Z,933.9
2017-09-29T05:11:50.010Z,933.88
2017-09-29T05:12:18.101Z,933.85
2017-09-29T05:12:46.142Z,933.85
2017-09-29T05:13:14.254Z,933.83
2017-09-29T05:13:42.340Z,933.75
2017-09-29T05:14:10.413Z,933.77
2017-09-29T05:14:38.544Z,933.82
2017-09-29T05:15:06.583Z,933.77
2017-09-29T05:15:34.694Z,933.77
2017-09-29T05:16:02.773Z,933.73
2017-09-29T05:16:30.877Z,933.72
2017-09-29T05:16:59.004Z,933.75
2017-09-29T05:17:27.020Z,933.71
2017-09-29T05:17:55.128Z,933.71
2017-09-29T05:18:23.236Z,933.71
2017-09-29T05:18:51.142Z,933.74
2017-09-29T05:19:19.137Z,933.74
2017-09-29T05:19:47.248Z,933.73
2017-09-29T05:20:15.323Z,933.71
2017-09-29T05:20:43.111Z,933.69
2017-09-29T05:21:11.207Z,933.72
2017-09-29T05:21:39.290Z,933.71
2017-09-29T05:22:07.080Z,933.68
2017-09-29T05:22:35.154Z,933.71
2017-09-29T05:23:03.038Z,933.65
2017-09-29T05:23:31.137Z,933.67
2017-09-29T05:23:59.257Z,933.65
2017-09-29T05:24:27.325Z,933.61
2017-09-29T05:24:55.327Z,933.58
2017-09-29T05:25:23.442Z,933.58
2017-09-29T05:25:51.442Z,933.61
2017-09-29T05:26:19.517Z,933.62
2017-09-29T05:26:47.629Z,933.61
2017-09-29T05:27:15.509Z,933.62
2017-09-29T05:27:43.615Z,933.64
2017-09-29T05:28:11.707Z,933.62
2017-09-29T05:28:39.817Z,933.68
2017-09-29T05:29:07.913Z,933.69
2017-09-29T05:29:35.931Z,933.68
2017-09-29T05:30:04.016Z,933.71
2017-09-29T05:30:32.031Z,933.68
2017-09-29T05:31:00.180Z,933.71
2017-09-29T05:31:28.187Z,933.7
2017-09-29T05:31:56.286Z,933.69
2017-09-29T05:32:24.376Z,933.69
2017-09-29T05:32:52.292Z,933.7
2017-09-29T05:33:20.499Z,933.68
2017-09-29T05:33:48.602Z,933.71
2017-09-29T05:34:16.727Z,933.67
2017-09-29T05:34:44.736Z,933.7
2017-09-29T05:35:12.836Z,933.67
2017-09-29T05:35:40.921Z,933.67
2017-09-29T05:36:09.030Z,933.67
2017-09-29T05:36:36.993Z,933.66
2017-09-29T05:37:05.130Z,933.66
2017-09-29T05:37:33.106Z,933.64
2017-09-29T05:38:01.211Z,933.62
2017-09-29T05:38:29.385Z,933.58
2017-09-29T05:38:57.352Z,933.63
2017-09-29T05:39:25.373Z,933.62
2017-09-29T05:39:53.288Z,933.6
2017-09-29T05:40:21.390Z,933.59
2017-09-29T05:40:49.481Z,933.62
2017-09-29T05:41:17.468Z,933.6
2017-09-29T05:41:45.357Z,933.59
2017-09-29T05:42:13.454Z,933.68
2017-09-29T05:42:41.315Z,933.64
2017-09-29T05:43:09.308Z,933.64
2017-09-29T05:43:37.406Z,933.63
2017-09-29T05:44:05.527Z,933.65
2017-09-29T05:44:33.553Z,933.63
2017-09-29T05:45:01.663Z,933.64
2017-09-29T05:45:29.658Z,933.61
2017-09-29T05:45:57.785Z,933.69
2017-09-29T05:46:25.886Z,933.72
2017-09-29T05:46:54.004Z,933.73
2017-09-29T05:47:22.088Z,933.73
2017-09-29T05:47:50.186Z,933.74
2017-09-29T05:48:18.265Z,933.72
2017-09-29T05:48:46.258Z,933.78
2017-09-29T05:49:14.368Z,933.76
2017-09-29T05:49:42.370Z,933.81
2017-09-29T05:50:10.350Z,933.85
2017-09-29T05:50:38.453Z,933.83
2017-09-29T05:51:06.541Z,933.87